Flight Track Log - Related Links

Times and Time Zones

All times are in EDT time to prevent confusion due to time zone crossing. See the RPA1631 flight status page for this flight to view local times or setup timezone preferences in your user account.

Time Position Orientation Groundspeed Altitude Reporting Facility
EDT Latitude Longitude Course Direction KTS MPH feet Rate Location/Type
Fri 09:13:06 AM 43.0942 -89.3614 270° West 139 160 2,900  Level Minneapolis Center
Fri 09:14:07 AM 43.0981 -89.4347 274° West 178 205 4,400 2,195 Climbing Minneapolis Center
Fri 09:15:09 AM 43.0994 -89.5364 271° West 221 254 7,400 2,439 Climbing Minneapolis Center
Fri 09:16:10 AM 43.1008 -89.6292 271° West 238 274 9,400 2,000 Climbing Minneapolis Center
Fri 09:17:12 AM 43.1025 -89.7339 271° West 264 304 11,500 2,315 Climbing Minneapolis Center
Fri 09:18:00 AM 43.1333 -90.2231 270° West  Level FlightAware Approximate
Fri 09:18:17 AM 43.1025 -89.8431 270° West 286 329 14,300  Level Chicago Center
Fri 09:19:19 AM 43.1039 -89.9667 271° West 302 348 16,500 2,177 Climbing Chicago Center
Fri 09:20:21 AM 43.1072 -90.0867 272° West 315 362 18,800 2,129 Climbing Chicago Center
Fri 09:21:23 AM 43.1067 -90.2119 270° West 325 374 20,900 2,226 Climbing Chicago Center
Fri 09:22:25 AM 43.1092 -90.3619 271° West 336 387 23,400 2,129 Climbing Chicago Center
Fri 09:23:27 AM 43.1094 -90.4939 270° West 347 399 25,300 1,742 Climbing Chicago Center
Fri 09:24:29 AM 43.1106 -90.6289 271° West 357 411 27,000 1,452 Climbing Chicago Center
Fri 09:25:31 AM 43.1094 -90.7661 269° West 365 420 28,300 1,210 Climbing Chicago Center
Fri 09:26:33 AM 43.1097 -90.9103 270° West 381 438 29,500 1,268 Climbing Chicago Center
Fri 09:27:34 AM 43.1108 -91.0861 271° West 391 450 30,900 1,317 Climbing Chicago Center
Fri 09:28:36 AM 43.1117 -91.2344 270° West 395 455 32,200 1,161 Climbing Chicago Center
Fri 09:29:38 AM 43.1125 -91.3833 270° West 398 458 33,300 837 Climbing Chicago Center
Fri 09:30:45 AM 43.1119 -91.5600 270° West 397 457 34,000 328 Climbing Minneapolis Center
Fri 09:31:46 AM 43.1117 -91.7139 270° West 407 468 34,000  Level Minneapolis Center
Fri 09:32:48 AM 43.1108 -91.8667 270° West 409 471 34,000  Level Minneapolis Center
Fri 09:33:50 AM 43.1089 -92.0197 269° West 409 471 34,000  Level Minneapolis Center
Fri 09:34:51 AM 43.1083 -92.1717 270° West 406 467 34,000  Level Minneapolis Center
Fri 09:35:53 AM 43.1064 -92.3542 269° West 406 467 34,000  Level Minneapolis Center
Fri 09:36:54 AM 43.1053 -92.5103 269° West 413 475 34,000  Level Minneapolis Center
Fri 09:37:56 AM 43.1031 -92.6644 269° West 412 474 34,000  Level Minneapolis Center
Fri 09:38:57 AM 43.1014 -92.8181 269° West 409 471 34,000  Level Minneapolis Center
Fri 09:39:59 AM 43.0989 -92.9739 269° West 412 474 34,000  Level Minneapolis Center
Fri 09:41:01 AM 43.0978 -93.1286 269° West 411 473 34,000  Level Minneapolis Center
Fri 09:42:02 AM 43.0956 -93.3122 269° West 407 468 34,000  Level Minneapolis Center
Fri 09:43:04 AM 43.0831 -93.4656 264° West 408 470 34,000  Level Minneapolis Center
Fri 09:44:05 AM 43.0675 -93.6167 262° West 406 467 34,000  Level Minneapolis Center
Fri 09:45:07 AM 43.0542 -93.7686 263° West 406 467 34,000  Level Minneapolis Center
Fri 09:46:09 AM 43.0394 -93.9206 262° West 407 468 34,000  Level Minneapolis Center
Fri 09:47:10 AM 43.0242 -94.0717 262° West 406 467 34,000  Level Minneapolis Center
Fri 09:48:12 AM 43.0072 -94.2522 263° West 403 464 34,000  Level Minneapolis Center
Fri 09:49:14 AM 42.9906 -94.4036 261° West 406 467 34,000  Level Minneapolis Center
Fri 09:50:15 AM 42.9783 -94.5267 262° West 410 472 34,000  Level Minneapolis Center
Fri 09:51:17 AM 42.9586 -94.7186 262° West 409 471 34,000  Level Minneapolis Center
Fri 09:52:18 AM 42.9422 -94.8711 262° West 407 468 34,000  Level Minneapolis Center
Fri 09:53:20 AM 42.9261 -95.0247 262° West 408 470 34,000  Level Minneapolis Center
Fri 09:54:22 AM 42.9089 -95.1764 261° West 406 467 34,000  Level Minneapolis Center
Fri 09:55:23 AM 42.8931 -95.3311 262° West 409 471 34,000  Level Minneapolis Center
Fri 09:56:25 AM 42.8761 -95.4842 261° West 409 471 34,000  Level Minneapolis Center
Fri 09:57:26 AM 42.8542 -95.6703 261° West 414 476 34,000  Level Minneapolis Center
Fri 09:58:28 AM 42.8364 -95.8267 261° West 418 481 34,000  Level Minneapolis Center
Fri 09:59:30 AM 42.8186 -95.9836 261° West 418 481 34,000  Level Minneapolis Center
Fri 10:00:31 AM 42.8000 -96.1406 261° West 420 483 34,000  Level Minneapolis Center
Fri 10:01:33 AM 42.7814 -96.2953 261° West 416 479 34,000  Level Minneapolis Center
Fri 10:02:34 AM 42.7622 -96.4508 261° West 417 480 34,000  Level Minneapolis Center
Fri 10:03:36 AM 42.7453 -96.6056 262° West 415 478 34,000  Level Minneapolis Center
Fri 10:04:37 AM 42.7258 -96.7544 260° West 407 468 34,000  Level Minneapolis Center
Fri 10:05:39 AM 42.7028 -96.9336 260° West 402 463 34,000  Level Minneapolis Center
Fri 10:06:41 AM 42.6844 -97.0850 261° West 406 467 34,000  Level Minneapolis Center
Fri 10:07:42 AM 42.6653 -97.2358 260° West 407 468 34,000  Level Minneapolis Center
Fri 10:08:44 AM 42.6461 -97.3878 260° West 406 467 34,000  Level Minneapolis Center
Fri 10:09:45 AM 42.6267 -97.5358 260° West 405 466 34,000  Level Minneapolis Center
Fri 10:10:47 AM 42.6075 -97.6861 260° West 401 461 34,000  Level Minneapolis Center
Fri 10:11:49 AM 42.5875 -97.8328 260° West 401 461 34,000  Level Minneapolis Center
Fri 10:12:50 AM 42.5636 -98.0047 259° West 398 458 34,000  Level Minneapolis Center
Fri 10:13:52 AM 42.5439 -98.1531 260° West 400 460 34,000  Level Minneapolis Center
Fri 10:14:54 AM 42.5233 -98.3006 259° West 400 460 34,000  Level Minneapolis Center
Fri 10:15:56 AM 42.5039 -98.4481 260° West 399 459 34,000  Level Minneapolis Center
Fri 10:16:57 AM 42.4831 -98.5961 259° West 401 461 34,000  Level Minneapolis Center
Fri 10:17:59 AM 42.4475 -98.7383 251° West 403 464 34,000  Level Minneapolis Center
Fri 10:19:01 AM 42.3883 -98.8758 240° Southwest 422 486 34,000  Level Minneapolis Center
Fri 10:20:03 AM 42.3231 -99.0367 241° Southwest 410 472 34,000  Level Minneapolis Center
Fri 10:21:04 AM 42.2653 -99.1694 240° Southwest 410 472 34,000  Level Minneapolis Center
Fri 10:22:06 AM 42.2097 -99.3022 241° Southwest 408 470 34,000  Level Minneapolis Center
Fri 10:23:08 AM 42.1531 -99.4353 240° Southwest 409 471 34,000  Level Minneapolis Center
Fri 10:23:37 AM 42.1292 -99.4908 240° Southwest 415 478 34,000  Level Denver Center
Fri 10:24:39 AM 42.0586 -99.6536 240° Southwest 420 483 34,000  Level Denver Center
Fri 10:25:40 AM 41.9992 -99.7942 240° Southwest 417 480 34,000  Level Denver Center
Fri 10:26:42 AM 41.9439 -99.9211 240° Southwest 414 476 34,000  Level Denver Center
Fri 10:27:44 AM 41.8886 -100.0483 240° Southwest 413 475 34,000  Level Denver Center
Fri 10:28:46 AM 41.8247 -100.1972 240° Southwest 413 475 34,000  Level Denver Center
Fri 10:29:47 AM 41.7667 -100.3261 239° Southwest 419 482 34,000  Level Denver Center
Fri 10:30:49 AM 41.7006 -100.4769 240° Southwest 421 484 34,000  Level Denver Center
Fri 10:31:51 AM 41.6433 -100.6058 239° Southwest 423 487 34,000  Level Denver Center
Fri 10:32:53 AM 41.5772 -100.7564 240° Southwest 422 486 34,000  Level Denver Center
Fri 10:33:55 AM 41.5192 -100.8856 239° Southwest 426 490 34,000  Level Denver Center
Fri 10:34:56 AM 41.4219 -101.0147 225° Southwest 450 518 34,000  Level Denver Center
Fri 10:35:58 AM 41.3339 -101.1206 222° Southwest 447 514 34,000  Level Denver Center
Fri 10:37:00 AM 41.2342 -101.2453 223° Southwest 444 511 34,000  Level Denver Center
Fri 10:38:02 AM 41.1869 -101.3783 245° Southwest 418 481 34,000  Level Denver Center
Fri 10:39:04 AM 41.1411 -101.5322 248° West 406 467 34,000  Level Denver Center
Fri 10:40:06 AM 41.1003 -101.6656 248° West 408 470 34,000  Level Denver Center
Fri 10:41:08 AM 41.0531 -101.8217 248° West 411 473 34,000  Level Denver Center
Fri 10:42:10 AM 41.0114 -101.9569 248° West 415 478 34,000  Level Denver Center
Fri 10:43:12 AM 40.9686 -102.0919 247° West 416 479 34,000  Level Denver Center
Fri 10:44:14 AM 40.9217 -102.2494 249° West 414 476 34,000  Level Denver Center
Fri 10:45:16 AM 40.8786 -102.3844 247° West 417 480 34,000  Level Denver Center
Fri 10:46:18 AM 40.8292 -102.5431 248° West 417 480 34,000  Level Denver Center
Fri 10:47:20 AM 40.7864 -102.6767 247° West 414 476 34,000  Level Denver Center
Fri 10:48:22 AM 40.7372 -102.8322 247° West 412 474 34,000  Level Denver Center
Fri 10:49:24 AM 40.6933 -102.9706 247° West 410 472 34,000 -435 Level Denver Center
Fri 10:50:26 AM 40.6475 -103.1097 247° West 412 474 33,100 -1,500 Descending Denver Center
Fri 10:51:28 AM 40.6033 -103.2508 248° West 413 475 30,900 -2,081 Descending Denver Center
Fri 10:52:30 AM 40.5586 -103.3856 246° West 399 459 28,800 -2,177 Descending Denver Center
Fri 10:53:32 AM 40.5106 -103.5383 248° West 386 444 26,400 -2,129 Descending Denver Center
Fri 10:54:34 AM 40.4689 -103.6622 246° West 372 428 24,400 -1,721 Descending Denver Center
Fri 10:55:48 AM 40.4300 -103.7831 247° West 374 430 22,500 -2,029 Descending Denver Center
Fri 10:56:50 AM 40.3808 -103.9322 247° West 340 391 19,800 -2,758 Descending Denver Center
Fri 10:57:52 AM 40.3564 -104.0475 254° West 328 377 16,800 -1,984 Descending Denver Center
Fri 10:58:54 AM 40.3547 -104.1519 269° West 289 333 15,700 -968 Descending Denver Center
Fri 10:59:56 AM 40.3344 -104.2569 256° West 294 338 14,800 -1,210 Descending Denver Center
Fri 11:00:58 AM 40.2833 -104.3453 233° Southwest 306 352 13,200 -1,597 Descending Denver Center
Fri 11:02:00 AM 40.2308 -104.4344 232° Southwest 290 334 11,500 -1,548 Descending Denver Center
Fri 11:03:02 AM 40.1836 -104.5189 234° Southwest 287 330 10,000 -1,597 Descending Denver Center
Fri 11:04:04 AM 40.1294 -104.5961 227° Southwest 279 321 8,200 -1,452 Descending Denver Center
Fri 11:05:06 AM 40.0622 -104.6439 209° Southwest 275 316 7,000 -581 Descending Denver Center
Fri 11:06:08 AM 40.0044 -104.6819 207° Southwest 218 251 7,000 -242 Level Denver Center
Fri 11:07:10 AM 39.9539 -104.6853 183° South 187 215 6,500 -629 Descending Denver Center
Fri 11:08:12 AM 39.9133 -104.6867 182° South 152 175 5,700 -581 Descending Denver Center
Fri 11:09:14 AM 39.8789 -104.6875 181° South 122 140 5,300 -387 Descending Denver Center
Fri 11:11:00 AM 39.8617 -104.6732 190° South  Level Estimated
Fri 11:18:00 AM 39.8617 -104.6732 190° South  Level Estimated
Fri 11:19:00 AM 39.8617 -104.6732 190° South  Level Estimated

Login

Don't have an account? Register now (free) for customized features, flight alerts, and more!